Helsinki, Finland

7:03 PM EET on February 11, 2016 (GMT +0200)
Vantaa | | Change Station
CLOSE
Current Station
Airport
Location: Helsinki,
Elevation: 184 ft
Nearby Weather Stations

Elev 184 ft 60.32 °N, 24.96 °E | Updated 13 minutes ago

Light Rain
Light Rain Mist
37 °F
Feels Like 30 °F
N
10
Wind Variable Wind from SE

Today
High -- | Low -- °F
--% Chance of Precip.
Yesterday
High -- | Low -- °F
Precip. -- in
Pressure 29.36 in
Visibility 2.5 miles
Clouds Mostly Cloudy 200 ft
Mostly Cloudy 400 ft
Windchill 30 °F
Dew Point 36 °F
Humidity 93%
Rainfall 0.00 in
Snow Depth Not available.
8:12 AM 4:57 PM
Waxing Crescent, 13% visible
METAR EFHK 111650Z 13009KT 4000 -RA BR BKN002 BKN004 03/02 Q0994 NOSIG
Pressure 29.36 in
Visibility 2.5 miles
Clouds Mostly Cloudy 200 ft
Mostly Cloudy 400 ft
Windchill 30 °F
Dew Point 36 °F
Humidity 93%
Rainfall 0.00 in
Snow Depth Not available.
8:12 AM 4:57 PM
Waxing Crescent, 13% visible
METAR EFHK 111650Z 13009KT 4000 -RA BR BKN002 BKN004 03/02 Q0994 NOSIG

10-Day Weather Forecast

Almanac

Astronomy

Feb. 11, 2016 Rise Set
Actual Time
Civil Twilight
Nautical Twilight
Astronomical Twilight
Moon
Length of Visible Light
Length of Day
Tomorrow will be .
, % of the Moon is Illuminated

Today's Extremes

Country Highs Country Lows

Community

WunderPhotos

Upload Photos

1,892,102 photos uploaded!

WunderBlog® & News

Nearby

Air Quality

  Air Quality AQ Index Pollutant
Not available.

Snow Depth

Station Depth Elevation

Earthquake Activity

City Distance Mag. Time & Date
Minimum magnitude displayed is 2.5.

Coastal Water Temperatures

Place Temperature

Stations

Nearby Weather Stations

Station Location Temp. Windchill Dew Point Humidity Wind Precip. Elev Updated Type